createdAt,value
2023-04-11T00:03:29.262Z,6.45
2023-04-11T00:07:11.399Z,5.80
2023-04-11T00:10:53.276Z,4.97
2023-04-11T00:14:35.254Z,5.78
2023-04-11T00:18:17.144Z,5.70
2023-04-11T00:22:00.606Z,6.10
2023-04-11T00:25:42.597Z,8.27
2023-04-11T00:29:24.516Z,5.65
2023-04-11T00:33:06.578Z,4.13
2023-04-11T00:36:48.995Z,5.03
2023-04-11T00:40:31.333Z,5.13
2023-04-11T00:44:14.010Z,5.88
2023-04-11T00:47:56.191Z,6.68
2023-04-11T00:51:38.467Z,5.20
2023-04-11T00:55:21.380Z,5.55
2023-04-11T00:59:03.486Z,7.47
2023-04-11T01:02:45.567Z,7.38
2023-04-11T01:06:31.051Z,5.82
2023-04-11T01:10:13.902Z,4.38
2023-04-11T01:13:55.893Z,5.95
2023-04-11T01:17:37.919Z,5.93
2023-04-11T01:21:21.060Z,7.03
2023-04-11T01:25:04.940Z,5.25
2023-04-11T01:28:46.891Z,5.05
2023-04-11T01:32:28.873Z,6.82
2023-04-11T01:36:11.271Z,5.68
2023-04-11T01:39:53.556Z,6.90
2023-04-11T01:43:35.506Z,13.48
2023-04-11T01:47:17.893Z,4.28
2023-04-11T01:50:59.888Z,6.05
2023-04-11T01:54:41.828Z,4.50
2023-04-11T01:58:23.736Z,6.35
2023-04-11T02:02:05.948Z,5.18
2023-04-11T02:05:48.056Z,4.93
2023-04-11T02:09:29.952Z,5.68
2023-04-11T02:13:12.004Z,6.82
2023-04-11T02:16:55.780Z,9.60
2023-04-11T02:20:38.021Z,7.25
2023-04-11T02:24:19.914Z,9.32
2023-04-11T02:28:01.926Z,8.05
2023-04-11T02:31:43.914Z,7.30
2023-04-11T02:35:26.382Z,5.85
2023-04-11T02:39:08.331Z,4.68
2023-04-11T02:42:50.845Z,7.22
2023-04-11T02:46:32.852Z,7.07
2023-04-11T02:50:14.915Z,6.95
2023-04-11T02:53:57.043Z,3.95
2023-04-11T02:57:39.325Z,6.95
2023-04-11T03:01:24.923Z,5.50
2023-04-11T03:05:07.684Z,6.57
2023-04-11T03:08:50.197Z,7.95
2023-04-11T03:12:32.109Z,9.35
2023-04-11T03:16:14.779Z,4.93
2023-04-11T03:19:56.681Z,3.03
2023-04-11T03:23:39.475Z,2.70
2023-04-11T03:27:21.331Z,1.85
2023-04-11T03:31:03.382Z,2.58
2023-04-11T03:34:45.469Z,1.65
2023-04-11T03:38:27.331Z,2.88
2023-04-11T03:42:09.324Z,1.90
2023-04-11T03:45:52.113Z,2.97
2023-04-11T03:49:34.119Z,1.48
2023-04-11T03:53:16.056Z,3.10
2023-04-11T03:56:58.138Z,1.42
2023-04-11T04:00:40.128Z,2.35
2023-04-11T04:04:22.108Z,3.03
2023-04-11T04:08:04.305Z,2.08
2023-04-11T04:11:46.163Z,1.65
2023-04-11T04:15:28.081Z,2.63
2023-04-11T04:19:09.970Z,1.00
2023-04-11T04:22:53.955Z,2.05
2023-04-11T04:26:38.110Z,1.50
2023-04-11T04:30:22.139Z,3.17
2023-04-11T04:34:08.726Z,4.97
2023-04-11T04:37:50.950Z,3.10
2023-04-11T04:41:34.322Z,2.88
2023-04-11T04:45:16.390Z,3.40
2023-04-11T04:48:59.550Z,4.10
2023-04-11T04:52:42.810Z,3.47
2023-04-11T04:56:24.661Z,4.07
2023-04-11T05:00:12.102Z,4.32
2023-04-11T05:04:01.540Z,6.97
2023-04-11T05:07:45.309Z,3.20
2023-04-11T05:11:28.575Z,5.25
2023-04-11T05:15:11.826Z,4.80
2023-04-11T05:18:53.795Z,6.13
2023-04-11T05:22:36.650Z,5.55
2023-04-11T05:26:18.588Z,6.43
2023-04-11T05:30:01.223Z,5.75
2023-04-11T05:33:43.470Z,3.45
2023-04-11T05:37:26.292Z,6.55
2023-04-11T05:41:09.217Z,4.65
2023-04-11T05:44:51.180Z,5.47
2023-04-11T05:48:33.235Z,5.30
2023-04-11T05:52:15.155Z,5.22
2023-04-11T05:55:57.381Z,4.07
2023-04-11T05:59:39.430Z,6.97
2023-04-11T06:03:21.953Z,6.95
2023-04-11T06:07:04.510Z,4.05
2023-04-11T06:10:46.607Z,7.32
2023-04-11T06:14:28.519Z,5.72
2023-04-11T06:18:10.436Z,4.88
2023-04-11T06:21:52.381Z,4.30
2023-04-11T06:25:34.280Z,3.55
2023-04-11T06:29:16.263Z,4.43
2023-04-11T06:32:58.682Z,4.07
2023-04-11T06:36:42.774Z,5.18
2023-04-11T06:40:24.764Z,4.25
2023-04-11T06:44:07.029Z,7.10
2023-04-11T06:47:50.334Z,4.82
2023-04-11T06:51:32.460Z,5.10
2023-04-11T06:55:15.638Z,5.97
2023-04-11T06:58:57.791Z,5.43
2023-04-11T07:02:39.946Z,5.55
2023-04-11T07:06:22.177Z,4.65
2023-04-11T07:10:05.332Z,3.90
2023-04-11T07:13:47.309Z,4.07
2023-04-11T07:17:29.596Z,3.97
2023-04-11T07:21:13.639Z,3.85
2023-04-11T07:24:57.517Z,2.95
2023-04-11T07:28:40.450Z,4.97
2023-04-11T07:32:22.417Z,3.42
2023-04-11T07:36:05.943Z,3.90
2023-04-11T07:39:48.954Z,3.95
2023-04-11T07:43:31.399Z,3.00
2023-04-11T07:47:13.315Z,2.97
2023-04-11T07:50:55.375Z,3.40
2023-04-11T07:54:37.516Z,4.05
2023-04-11T07:58:19.434Z,2.35
2023-04-11T08:02:02.442Z,4.32
2023-04-11T08:05:44.562Z,5.22
2023-04-11T08:09:27.763Z,4.55
2023-04-11T08:13:09.702Z,3.30
2023-04-11T08:16:53.188Z,5.13
2023-04-11T08:20:35.383Z,2.80
2023-04-11T08:24:17.516Z,4.25
2023-04-11T08:27:59.668Z,5.97
2023-04-11T08:31:45.630Z,5.60
2023-04-11T08:35:27.910Z,4.13
2023-04-11T08:39:09.835Z,5.38
2023-04-11T08:42:59.077Z,4.90
2023-04-11T08:46:42.679Z,3.37
2023-04-11T08:50:24.871Z,4.28
2023-04-11T08:54:08.867Z,4.50
2023-04-11T08:57:50.764Z,6.78
2023-04-11T09:01:34.244Z,5.72
2023-04-11T09:05:41.479Z,5.63
2023-04-11T09:09:31.514Z,4.65
2023-04-11T09:13:22.471Z,5.68
2023-04-11T09:17:13.255Z,8.52
2023-04-11T09:21:05.894Z,3.00
2023-04-11T09:25:02.568Z,5.68
2023-04-11T09:28:54.600Z,6.32
2023-04-11T09:32:36.726Z,6.35
2023-04-11T09:36:21.344Z,4.97
2023-04-11T09:40:05.721Z,6.80
2023-04-11T09:43:58.412Z,5.72
2023-04-11T09:47:41.798Z,4.30
2023-04-11T09:51:35.274Z,4.20
2023-04-11T09:55:22.931Z,5.00
2023-04-11T09:59:05.518Z,5.18
2023-04-11T10:02:50.304Z,5.53
2023-04-11T10:06:41.233Z,7.15
2023-04-11T10:10:24.822Z,4.25
2023-04-11T10:14:06.758Z,6.22
2023-04-11T10:18:09.230Z,5.60
2023-04-11T10:21:51.617Z,5.45
2023-04-11T10:26:08.272Z,5.63
2023-04-11T10:29:52.060Z,4.68
2023-04-11T10:33:36.195Z,5.25
2023-04-11T10:37:31.133Z,7.60
2023-04-11T10:41:27.747Z,7.82
2023-04-11T10:45:22.219Z,5.50
2023-04-11T10:49:05.493Z,4.97
2023-04-11T10:52:47.910Z,7.05
2023-04-11T10:56:56.214Z,5.20
2023-04-11T11:00:48.131Z,5.63
2023-04-11T11:04:34.659Z,5.93
2023-04-11T11:08:27.283Z,6.07
2023-04-11T11:12:15.136Z,5.70
2023-04-11T11:15:57.954Z,6.63
2023-04-11T11:19:45.026Z,6.30
2023-04-11T11:23:30.843Z,5.60
2023-04-11T11:27:20.396Z,6.60
2023-04-11T11:31:04.075Z,8.53
2023-04-11T11:34:46.216Z,5.25
2023-04-11T11:38:30.284Z,4.57
2023-04-11T11:42:12.480Z,5.13
2023-04-11T11:46:09.332Z,3.60
2023-04-11T11:49:52.236Z,3.28
2023-04-11T11:53:34.280Z,4.47
2023-04-11T11:57:25.050Z,5.18
2023-04-11T12:01:07.039Z,4.18
2023-04-11T12:04:49.399Z,4.28
2023-04-11T12:08:33.827Z,7.05
2023-04-11T12:12:17.776Z,5.95
2023-04-11T12:16:03.899Z,7.72
2023-04-11T12:19:45.875Z,5.53
2023-04-11T12:23:28.540Z,6.18
2023-04-11T12:27:12.720Z,5.60
2023-04-11T12:30:54.629Z,5.15
2023-04-11T12:34:36.555Z,7.55
2023-04-11T12:38:18.483Z,7.53
2023-04-11T12:42:00.490Z,7.63
2023-04-11T12:45:42.619Z,5.00
2023-04-11T12:49:24.582Z,3.92
2023-04-11T12:53:06.516Z,3.97
2023-04-11T12:56:48.430Z,4.03
2023-04-11T13:00:30.885Z,6.35
2023-04-11T13:04:13.414Z,3.38
2023-04-11T13:07:55.593Z,5.00
2023-04-11T13:11:37.960Z,4.22
2023-04-11T13:15:19.899Z,3.50
2023-04-11T13:19:02.053Z,3.65
2023-04-11T13:22:44.388Z,5.07
2023-04-11T13:26:26.818Z,5.00
2023-04-11T13:30:10.847Z,2.60
2023-04-11T13:33:53.562Z,4.32
2023-04-11T13:37:35.552Z,3.70
2023-04-11T13:41:17.761Z,6.38
2023-04-11T13:44:59.740Z,3.83
2023-04-11T13:48:41.740Z,2.80
2023-04-11T13:52:23.872Z,4.97
2023-04-11T13:56:07.219Z,1.70
2023-04-11T13:59:49.116Z,2.50
2023-04-11T14:03:33.737Z,4.43
2023-04-11T14:07:16.217Z,4.35
2023-04-11T14:10:58.195Z,2.63
2023-04-11T14:14:40.138Z,4.43
2023-04-11T14:18:22.121Z,3.45
2023-04-11T14:22:04.298Z,3.30
2023-04-11T14:25:47.255Z,2.55
2023-04-11T14:29:34.537Z,3.05
2023-04-11T14:33:16.752Z,2.75
2023-04-11T14:36:58.847Z,1.90
2023-04-11T14:40:41.567Z,3.05
2023-04-11T14:44:23.537Z,2.60
2023-04-11T14:48:05.906Z,3.58
2023-04-11T14:51:48.100Z,4.57
2023-04-11T14:55:30.052Z,1.83
2023-04-11T14:59:11.996Z,3.65
2023-04-11T15:02:56.320Z,3.45
2023-04-11T15:06:38.460Z,2.20
2023-04-11T15:10:23.415Z,3.50
2023-04-11T15:14:05.280Z,2.80
2023-04-11T15:17:49.756Z,2.50
2023-04-11T15:21:34.852Z,2.75
2023-04-11T15:25:17.015Z,3.00
2023-04-11T15:28:58.921Z,4.70
2023-04-11T15:32:44.250Z,3.35
2023-04-11T15:36:26.297Z,3.75
2023-04-11T15:40:12.237Z,3.08
2023-04-11T15:43:54.550Z,2.60
2023-04-11T15:47:36.857Z,3.15
2023-04-11T15:51:18.920Z,6.45
2023-04-11T15:55:00.923Z,3.40
2023-04-11T15:58:42.826Z,5.18
2023-04-11T16:02:24.978Z,3.40
2023-04-11T16:06:07.491Z,6.45
2023-04-11T16:09:50.080Z,3.53
2023-04-11T16:13:32.184Z,2.60
2023-04-11T16:17:19.161Z,3.60
2023-04-11T16:21:01.096Z,4.00
2023-04-11T16:24:43.832Z,3.08
2023-04-11T16:28:25.814Z,3.75
2023-04-11T16:32:08.038Z,3.45
2023-04-11T16:35:50.259Z,2.17
2023-04-11T16:39:32.210Z,5.28
2023-04-11T16:43:14.128Z,3.63
2023-04-11T16:46:56.327Z,2.50
2023-04-11T16:50:38.757Z,4.78
2023-04-11T16:54:20.687Z,5.03
2023-04-11T16:58:02.556Z,2.10
2023-04-11T17:01:45.182Z,4.22
2023-04-11T17:05:27.502Z,3.67
2023-04-11T17:09:09.862Z,2.08
2023-04-11T17:12:51.768Z,2.35
2023-04-11T17:16:33.702Z,2.25
2023-04-11T17:20:16.410Z,2.20
2023-04-11T17:23:58.457Z,3.33
2023-04-11T17:27:41.245Z,4.55
2023-04-11T17:31:23.289Z,4.85
2023-04-11T17:35:06.744Z,3.33
2023-04-11T17:38:49.324Z,3.45
2023-04-11T17:42:31.308Z,4.15
2023-04-11T17:46:14.238Z,2.95
2023-04-11T17:49:57.304Z,3.40
2023-04-11T17:53:39.442Z,4.70
2023-04-11T17:57:21.375Z,3.38
2023-04-11T18:01:04.604Z,5.82
2023-04-11T18:04:46.936Z,1.88
2023-04-11T18:08:46.839Z,2.05
2023-04-11T18:12:31.800Z,1.85
2023-04-11T18:16:13.815Z,2.33
2023-04-11T18:19:57.129Z,1.35
2023-04-11T18:23:39.590Z,3.08
2023-04-11T18:27:22.072Z,4.70
2023-04-11T18:31:04.945Z,3.90
2023-04-11T18:34:47.230Z,2.50
2023-04-11T18:38:29.235Z,3.15
2023-04-11T18:42:11.128Z,2.33
2023-04-11T18:45:53.109Z,2.72
2023-04-11T18:49:36.040Z,3.20
2023-04-11T18:53:18.240Z,3.13
2023-04-11T18:57:00.447Z,5.72
2023-04-11T19:00:42.596Z,3.75
2023-04-11T19:04:24.918Z,4.57
2023-04-11T19:08:07.284Z,6.38
2023-04-11T19:11:49.207Z,6.90
2023-04-11T19:15:31.196Z,5.38
2023-04-11T19:19:13.111Z,6.88
2023-04-11T19:22:55.591Z,6.22
2023-04-11T19:26:37.570Z,4.85
2023-04-11T19:30:19.758Z,6.32
2023-04-11T19:34:04.482Z,6.03
2023-04-11T19:37:46.650Z,3.55
2023-04-11T19:41:28.633Z,6.00
2023-04-11T19:45:11.672Z,6.03
2023-04-11T19:48:55.038Z,5.90
2023-04-11T19:52:37.006Z,7.53
2023-04-11T19:56:18.850Z,8.48
2023-04-11T20:00:01.291Z,9.18
2023-04-11T20:03:43.345Z,6.45
2023-04-11T20:07:25.569Z,7.30
2023-04-11T20:11:07.495Z,7.07
2023-04-11T20:14:49.546Z,5.85
2023-04-11T20:18:31.703Z,7.57
2023-04-11T20:22:18.424Z,4.93
2023-04-11T20:26:00.351Z,9.05
2023-04-11T20:29:42.489Z,7.32
2023-04-11T20:33:24.956Z,6.60
2023-04-11T20:37:07.888Z,5.93
2023-04-11T20:40:50.055Z,7.40
2023-04-11T20:44:34.875Z,9.52
2023-04-11T20:48:16.786Z,8.30
2023-04-11T20:52:00.224Z,10.23
2023-04-11T20:55:42.164Z,9.07
2023-04-11T20:59:24.090Z,8.18
2023-04-11T21:03:06.543Z,6.32
2023-04-11T21:06:49.805Z,10.27
2023-04-11T21:10:31.789Z,7.63
2023-04-11T21:14:13.787Z,6.95
2023-04-11T21:17:55.814Z,12.25
2023-04-11T21:21:39.588Z,5.93
2023-04-11T21:25:22.487Z,9.25
2023-04-11T21:29:04.447Z,6.85
2023-04-11T21:32:46.668Z,7.53
2023-04-11T21:36:28.796Z,8.45
2023-04-11T21:40:11.286Z,10.23
2023-04-11T21:43:53.193Z,7.90
2023-04-11T21:47:35.170Z,8.35
2023-04-11T21:51:17.305Z,9.32
2023-04-11T21:54:59.353Z,9.05
2023-04-11T21:58:41.264Z,8.82
2023-04-11T22:02:23.721Z,6.63
2023-04-11T22:06:06.284Z,9.43
2023-04-11T22:09:48.198Z,7.72
2023-04-11T22:13:30.705Z,10.52
2023-04-11T22:17:12.680Z,9.38
2023-04-11T22:20:54.664Z,8.95
2023-04-11T22:24:38.308Z,8.07
2023-04-11T22:28:22.201Z,9.10
2023-04-11T22:32:04.357Z,10.13
2023-04-11T22:35:47.795Z,11.88
2023-04-11T22:39:30.245Z,7.82
2023-04-11T22:43:12.423Z,9.75
2023-04-11T22:47:04.012Z,9.43
2023-04-11T22:50:52.736Z,11.35
2023-04-11T22:54:35.342Z,9.10
2023-04-11T22:58:17.322Z,10.70
2023-04-11T23:01:59.253Z,9.32
2023-04-11T23:05:42.340Z,10.57
2023-04-11T23:09:24.256Z,9.20
2023-04-11T23:13:06.489Z,7.05
2023-04-11T23:16:48.741Z,9.48
2023-04-11T23:20:31.243Z,7.30
2023-04-11T23:24:13.312Z,9.55
2023-04-11T23:27:55.195Z,6.75
2023-04-11T23:31:37.092Z,10.95
2023-04-11T23:35:19.503Z,7.28
2023-04-11T23:39:02.219Z,9.32
2023-04-11T23:42:44.854Z,7.25
2023-04-11T23:46:27.179Z,11.00
2023-04-11T23:50:11.043Z,10.25
2023-04-11T23:53:52.995Z,6.95
2023-04-11T23:57:35.118Z,7.82
